Aérodrome :
LOGIN :

S'inscrire | Disclaimer

   EN    FR    IT 

 










Légende :    VFR   VFR Marginal   IFR   IFR Intensif   IFR Très Intensif
Visi : 
Plafond : 
>= 8 km
>= 3000ft
5 à 8 km
1000 à 3000 ft
1500m à 5 km
500 à 1000 ft
800 à 1500m
200 à 500 ft
< 800m
< 200 ft
Symboles :   Orages  Brouillard  Fortes neiges  Fortes précipitations  Vent > 20 kt
SIGMETs :   Divers  Orages  Givrage  Turbulence  Onde Orograph.  Cendres Volcan.







- Altitude de l'aérodrome : 2096 ft
- Code IATA : AUR
- Voir les cartes d'approche


LFLW - Aurillac

DERNIER METAR :
  • 181530Z AUTO 11012KT CAVOK 08/03 Q1017 TEMPO 13015G30KT

METARs EXPIRÉS :
  • 181500Z AUTO 11012KT CAVOK 08/03 Q1017 TEMPO 13015G30KT
  • 181430Z AUTO 11013KT CAVOK 08/03 Q1016 TEMPO 13015G30KT
  • 181400Z AUTO 11013KT 080V140 CAVOK 08/03 Q1017 TEMPO 13015G30KT
  • 181330Z AUTO 12012KT 080V140 CAVOK 08/03 Q1017 TEMPO 13015G30KT
  • 181300Z AUTO 12013KT CAVOK 08/03 Q1017 TEMPO 13015G30KT

TAF TAF LFLW
Valide du 18 à 15h jusqu'au 19 à 00h UTC


181400Z 1815/1824 11013KT CAVOK
TEMPO 1815/1818 13015G30KT
BECMG 1822/1824 17005KT RA BKN040 OVC060
Pas de NOTAMs connus pour ce terrain.
4 SIGMETs publiés pour la FIR Bordeaux (LFBB) :
 
Turbulence forte
LFBB SIGMET 7 VALID 181600/182000 LFPW
LFBB BORDEAUX FIR/UIR SEV TURB FCST WI N4500 E00245 - N4300 E00230 - N4330 E00115 - N4345 E00130 - N4345 E00200 - N4500 E00245 SFC/FL060 STNR WKN=
Turbulence forte
LFBB SIGMET 6 VALID 181600/181900 LFPW
LFBB BORDEAUX FIR/UIR SEV TURB FCST WI N4230 E00030 - N4300 W00145 - N4330 W00145 - N4300 E00045 - N4230 E00030 SFC/FL120 STNR WKN=
Turbulence forte
LFBB SIGMET 5 VALID 181300/181600 LFPW
LFBB BORDEAUX FIR/UIR SEV TURB FCST WI N4415 E00245 - N4300 E00230 - N4330 E00100 - N4345 E00115 - N4430 E00230 - N4415 E00245 SFC/FL060 STNR NC=
Turbulence forte
LFBB SIGMET 4 VALID 181200/181600 LFPW
LFBB BORDEAUX FIR/UIR SEV TURB FCST WI N4230 E00045 - N4300 W00145 - N4330 W00145 - N4300 E00045 - N4230 E00045 SFC/FL120 STNR NC=



MET'MAP, la Météo Aéronautique d'un coup d'oeil ! - Copyright ORBIFLY Décembre 2007 - Disclaimer

ORBIFLY MET'MAP TEAM :

Programmation & Développement : Alexandra Zaïnal
Conception & Développement : Baudouin d'Aumeries
Co-Programmation & Développement : Marc-Olivier Méhu
Soutien technique & logistique : Manuel Goepfert

Contact : metmap@orbifly.com




SOURCES & CREDITS :

   NOAA